createdAt,value
2023-02-19T00:17:31.548Z,1.40
2023-02-19T00:34:48.144Z,1.10
2023-02-19T00:39:08.131Z,1.00
2023-02-19T01:00:33.207Z,0.90
2023-02-19T01:07:41.414Z,1.10
2023-02-19T01:09:10.276Z,1.10
2023-02-19T01:17:34.958Z,0.70
2023-02-19T01:21:48.803Z,0.90
2023-02-19T01:39:07.755Z,0.60
2023-02-19T01:52:04.165Z,0.40
2023-02-19T01:56:06.002Z,0.40
2023-02-19T01:59:55.639Z,0.30
2023-02-19T02:04:15.521Z,0.50
2023-02-19T02:08:18.153Z,0.30
2023-02-19T02:12:29.785Z,0.40
2023-02-19T02:16:37.434Z,0.60
2023-02-19T02:20:44.440Z,0.40
2023-02-19T02:56:25.338Z,0.50
2023-02-19T03:05:51.054Z,0.60
2023-02-19T03:09:51.466Z,0.70
2023-02-19T03:13:51.381Z,0.70
2023-02-19T03:18:08.093Z,1.00
2023-02-19T03:26:21.788Z,1.00
2023-02-19T03:34:26.498Z,0.90
2023-02-19T03:38:43.325Z,1.00
2023-02-19T03:43:03.737Z,1.00
2023-02-19T03:47:31.891Z,0.90
2023-02-19T03:51:51.780Z,1.10
2023-02-19T03:56:03.103Z,1.10
2023-02-19T03:59:55.225Z,1.20
2023-02-19T04:04:26.860Z,1.00
2023-02-19T04:08:30.560Z,1.20
2023-02-19T04:13:21.322Z,1.10
2023-02-19T04:48:46.353Z,0.90
2023-02-19T05:03:29.974Z,0.80
2023-02-19T05:58:05.918Z,0.60
2023-02-19T07:00:10.450Z,0.80
2023-02-19T09:16:53.863Z,1.30
2023-02-19T09:20:17.557Z,0.70
2023-02-19T09:28:44.024Z,1.20
2023-02-19T09:32:37.945Z,0.60
2023-02-19T09:36:30.516Z,0.70
2023-02-19T09:40:26.056Z,0.90
2023-02-19T09:44:22.452Z,0.70
2023-02-19T09:48:19.714Z,0.40
2023-02-19T09:52:27.455Z,0.40
2023-02-19T09:56:25.944Z,0.90
2023-02-19T10:00:32.774Z,1.00
2023-02-19T10:04:35.228Z,0.80
2023-02-19T10:08:39.104Z,0.90
2023-02-19T10:12:33.906Z,0.70
2023-02-19T10:16:40.820Z,0.80
2023-02-19T10:20:44.471Z,1.00
2023-02-19T10:24:30.953Z,1.20
2023-02-19T10:28:34.676Z,1.30
2023-02-19T10:32:52.102Z,0.90
2023-02-19T10:36:54.145Z,1.00
2023-02-19T10:40:53.060Z,0.80
2023-02-19T10:44:56.900Z,0.80
2023-02-19T10:48:53.884Z,1.00
2023-02-19T10:53:06.689Z,1.20
2023-02-19T10:57:11.386Z,1.10
2023-02-19T11:01:05.344Z,1.00
2023-02-19T11:05:22.236Z,0.80
2023-02-19T11:09:25.914Z,0.90
2023-02-19T11:13:43.699Z,1.10
2023-02-19T11:17:47.389Z,0.90
2023-02-19T11:21:50.230Z,1.10
2023-02-19T11:25:39.219Z,0.90
2023-02-19T11:29:45.850Z,0.80
2023-02-19T11:33:43.500Z,1.00
2023-02-19T11:37:53.349Z,0.70
2023-02-19T11:42:18.023Z,0.80
2023-02-19T11:46:34.026Z,0.80
2023-02-19T11:50:42.311Z,0.80
2023-02-19T11:55:02.916Z,0.70
2023-02-19T11:59:21.453Z,1.20
2023-02-19T12:03:18.120Z,0.70
2023-02-19T12:07:30.527Z,0.70
2023-02-19T12:11:51.035Z,0.90
2023-02-19T12:16:00.770Z,1.10
2023-02-19T12:20:42.764Z,0.50
2023-02-19T12:25:09.932Z,0.50
2023-02-19T12:29:19.603Z,0.90
2023-02-19T12:33:24.934Z,0.90
2023-02-19T12:37:34.624Z,0.60
2023-02-19T12:46:19.794Z,0.50
2023-02-19T12:50:11.149Z,1.00
2023-02-19T12:54:23.863Z,0.50
2023-02-19T12:58:41.741Z,0.90
2023-02-19T13:02:56.263Z,1.00
2023-02-19T13:07:27.472Z,0.70
2023-02-19T13:11:34.158Z,1.00
2023-02-19T13:15:38.862Z,1.00
2023-02-19T13:19:45.453Z,0.70
2023-02-19T13:24:19.697Z,0.80
2023-02-19T13:28:32.367Z,0.70
2023-02-19T13:32:36.205Z,0.80
2023-02-19T13:36:46.599Z,0.80
2023-02-19T13:40:51.117Z,0.90
2023-02-19T13:45:01.166Z,0.60
2023-02-19T13:49:30.123Z,1.10
2023-02-19T13:53:33.824Z,1.00
2023-02-19T13:57:34.636Z,0.80
2023-02-19T14:01:48.579Z,0.90
2023-02-19T14:05:52.840Z,0.60
2023-02-19T14:43:16.468Z,0.90
2023-02-19T14:46:49.502Z,0.70
2023-02-19T14:50:58.572Z,0.70
2023-02-19T14:59:59.308Z,0.80
2023-02-19T15:04:01.282Z,0.90
2023-02-19T17:16:38.439Z,1.90
2023-02-19T17:20:28.996Z,1.30
2023-02-19T17:23:55.492Z,1.70
2023-02-19T17:27:50.844Z,1.30
2023-02-19T17:31:53.098Z,1.30
2023-02-19T17:35:28.062Z,1.10
2023-02-19T17:39:26.177Z,1.50
2023-02-19T17:48:05.393Z,1.20
2023-02-19T17:52:33.897Z,1.10
2023-02-19T17:56:42.519Z,1.30
2023-02-19T18:00:44.972Z,1.90
2023-02-19T18:04:43.195Z,2.20
2023-02-19T18:09:02.030Z,1.90
2023-02-19T18:13:15.573Z,1.40
2023-02-19T18:17:18.923Z,1.60
2023-02-19T18:21:20.899Z,2.00
2023-02-19T18:25:11.700Z,3.20
2023-02-19T18:29:14.065Z,2.50
2023-02-19T18:33:09.498Z,3.50
2023-02-19T18:37:11.724Z,2.90
2023-02-19T18:40:49.494Z,2.30
2023-02-19T18:44:51.104Z,2.60
2023-02-19T18:52:59.058Z,2.30
2023-02-19T18:57:01.228Z,3.00
2023-02-19T19:01:03.545Z,2.30
2023-02-19T19:05:05.940Z,2.20
2023-02-19T19:08:51.416Z,2.90
2023-02-19T19:12:53.700Z,2.30
2023-02-19T19:21:21.947Z,2.50
2023-02-19T19:25:08.362Z,1.90
2023-02-19T19:29:08.100Z,2.30
2023-02-19T19:33:01.867Z,2.40
2023-02-19T19:37:27.479Z,2.10
2023-02-19T19:41:51.823Z,2.00
2023-02-19T19:45:57.166Z,1.10
2023-02-19T19:51:41.998Z,1.80
2023-02-19T21:14:47.339Z,1.90
2023-02-19T21:18:51.158Z,1.90
2023-02-19T21:22:54.777Z,1.70
2023-02-19T21:26:58.357Z,2.20
2023-02-19T21:31:02.197Z,1.30
2023-02-19T21:35:06.697Z,1.10
2023-02-19T21:38:55.597Z,1.50
2023-02-19T21:42:44.397Z,1.70
2023-02-19T21:46:47.962Z,1.40
2023-02-19T21:50:50.012Z,1.40
2023-02-19T21:54:56.725Z,1.20
2023-02-19T21:59:04.596Z,1.20
2023-02-19T22:03:00.145Z,1.90
2023-02-19T22:06:43.376Z,1.60
2023-02-19T22:10:45.009Z,1.20
2023-02-19T22:18:24.543Z,1.10
2023-02-19T22:22:14.321Z,0.80
2023-02-19T22:26:27.100Z,0.90
2023-02-19T22:30:16.152Z,0.90
2023-02-19T22:34:12.498Z,1.30
2023-02-19T22:38:07.815Z,1.50
2023-02-19T22:42:03.269Z,0.80
2023-02-19T22:46:07.040Z,0.80
2023-02-19T22:49:55.226Z,1.00
2023-02-19T22:53:43.880Z,0.80
2023-02-19T22:58:02.010Z,0.80
2023-02-19T23:01:51.422Z,0.90
2023-02-19T23:05:59.768Z,1.00
2023-02-19T23:10:03.384Z,0.80
2023-02-19T23:13:51.444Z,0.90
2023-02-19T23:17:46.178Z,1.10
2023-02-19T23:21:34.775Z,0.60
2023-02-19T23:25:27.873Z,0.60
2023-02-19T23:29:32.976Z,0.70
2023-02-19T23:33:25.762Z,0.70
2023-02-19T23:37:06.814Z,1.10
2023-02-19T23:40:48.124Z,0.80
2023-02-19T23:44:47.391Z,0.80
2023-02-19T23:48:42.358Z,0.80
2023-02-19T23:52:43.584Z,0.80
